Kalgoorlie-Boulder Airport

Airport
ICAO code: 
YPKG
IATA Code: 
KGI
Summary
ICAO Region: 
APAC
Territory: 
Location: 
Kalgoorlie, Western Australia
Serving: 
Kalgoorlie
Elevation: 
1203 ft
Coordinates: 
Aerial View: 
30° 47' 4.852" S, 121° 27' 35.879" E
Metar
Observation
YPKG 281130Z AUTO 03002KT 9999 // NCD 27/03 Q1013 RF00.0/000.0
Station
Kalgoorlie Boulder Amo
Date/Time
2021-11-28 11:30:00
Wind direction
30°
Wind speed
02 kts
Lowest cloud amount
no clouds detected
Temperature
27°C
Dew point
3°C
Humidity
21%
QNH
1013 hPa
Weather condition
n/a

Airport located 7 km from the center of Kalgoorlie, Western Australia.

Climatology

Hot, semi-arid/Steppe climate (Köppen climate classification BSh) - hot, sometimes extremely hot summers and mild to warm winters, with low annual precipitation.

Runways

Designator Length Width Surface Rops
18/36 1200 18 ASP No/No
11/29 2000 45 ASP No/No
Airport map: 
Aerial View: 

Accidents and Serious Incidents at or in the vicinity of YPKG

SKYbrary Partners:

Safety knowledge contributed by: